sensor_id;sensor_type;location;lat;lon;timestamp;P1;durP1;ratioP1;P2;durP2;ratioP2
10154;SDS011;5118;48.570;7.916;2023-11-22T00:01:06;16.97;;;13.50;;
10154;SDS011;5118;48.570;7.916;2023-11-22T00:03:39;17.87;;;12.53;;
10154;SDS011;5118;48.570;7.916;2023-11-22T00:06:10;18.83;;;13.97;;
10154;SDS011;5118;48.570;7.916;2023-11-22T00:08:40;22.47;;;14.03;;
10154;SDS011;5118;48.570;7.916;2023-11-22T00:11:09;17.13;;;14.07;;
10154;SDS011;5118;48.570;7.916;2023-11-22T00:13:40;20.10;;;15.47;;
10154;SDS011;5118;48.570;7.916;2023-11-22T00:16:09;22.40;;;14.90;;
10154;SDS011;5118;48.570;7.916;2023-11-22T00:18:38;15.90;;;13.10;;
10154;SDS011;5118;48.570;7.916;2023-11-22T00:21:07;14.73;;;11.30;;
10154;SDS011;5118;48.570;7.916;2023-11-22T00:23:36;12.30;;;10.20;;
10154;SDS011;5118;48.570;7.916;2023-11-22T00:26:06;10.13;;;9.13;;
10154;SDS011;5118;48.570;7.916;2023-11-22T00:28:37;11.43;;;9.00;;
10154;SDS011;5118;48.570;7.916;2023-11-22T00:31:05;10.73;;;9.40;;
10154;SDS011;5118;48.570;7.916;2023-11-22T00:33:34;9.30;;;7.97;;
10154;SDS011;5118;48.570;7.916;2023-11-22T00:36:03;9.77;;;8.77;;
10154;SDS011;5118;48.570;7.916;2023-11-22T00:38:34;10.60;;;9.20;;
10154;SDS011;5118;48.570;7.916;2023-11-22T00:41:04;11.97;;;9.17;;
10154;SDS011;5118;48.570;7.916;2023-11-22T00:43:37;9.30;;;8.30;;
10154;SDS011;5118;48.570;7.916;2023-11-22T00:46:05;9.57;;;8.07;;
10154;SDS011;5118;48.570;7.916;2023-11-22T00:48:34;10.87;;;9.23;;
10154;SDS011;5118;48.570;7.916;2023-11-22T00:51:03;10.03;;;8.33;;
10154;SDS011;5118;48.570;7.916;2023-11-22T00:53:35;10.20;;;8.20;;
10154;SDS011;5118;48.570;7.916;2023-11-22T00:56:05;9.63;;;8.37;;
10154;SDS011;5118;48.570;7.916;2023-11-22T00:58:34;9.73;;;8.60;;
10154;SDS011;5118;48.570;7.916;2023-11-22T01:01:04;10.90;;;9.10;;
10154;SDS011;5118;48.570;7.916;2023-11-22T01:03:33;10.13;;;9.03;;
10154;SDS011;5118;48.570;7.916;2023-11-22T01:06:03;10.57;;;9.47;;
10154;SDS011;5118;48.570;7.916;2023-11-22T01:08:33;9.97;;;8.97;;
10154;SDS011;5118;48.570;7.916;2023-11-22T01:11:03;10.10;;;8.30;;
10154;SDS011;5118;48.570;7.916;2023-11-22T01:13:32;10.73;;;9.20;;
10154;SDS011;5118;48.570;7.916;2023-11-22T01:16:09;10.40;;;8.53;;
10154;SDS011;5118;48.570;7.916;2023-11-22T01:18:40;8.67;;;7.77;;
10154;SDS011;5118;48.570;7.916;2023-11-22T01:21:12;8.60;;;7.57;;
10154;SDS011;5118;48.570;7.916;2023-11-22T01:23:41;9.10;;;8.10;;
10154;SDS011;5118;48.570;7.916;2023-11-22T01:26:12;9.77;;;8.00;;
10154;SDS011;5118;48.570;7.916;2023-11-22T01:28:41;9.60;;;7.70;;
10154;SDS011;5118;48.570;7.916;2023-11-22T01:31:12;8.33;;;7.43;;
10154;SDS011;5118;48.570;7.916;2023-11-22T01:33:41;11.90;;;7.67;;
10154;SDS011;5118;48.570;7.916;2023-11-22T01:36:10;8.33;;;7.43;;
10154;SDS011;5118;48.570;7.916;2023-11-22T01:38:38;8.47;;;7.67;;
10154;SDS011;5118;48.570;7.916;2023-11-22T01:41:08;9.53;;;7.13;;
10154;SDS011;5118;48.570;7.916;2023-11-22T01:43:36;8.20;;;7.40;;
10154;SDS011;5118;48.570;7.916;2023-11-22T01:46:07;7.97;;;7.17;;
10154;SDS011;5118;48.570;7.916;2023-11-22T01:48:37;8.17;;;7.37;;
10154;SDS011;5118;48.570;7.916;2023-11-22T01:51:06;7.87;;;6.93;;
10154;SDS011;5118;48.570;7.916;2023-11-22T01:53:35;9.57;;;7.40;;
10154;SDS011;5118;48.570;7.916;2023-11-22T01:56:04;8.57;;;6.83;;
10154;SDS011;5118;48.570;7.916;2023-11-22T01:58:33;8.50;;;7.70;;
10154;SDS011;5118;48.570;7.916;2023-11-22T02:01:01;7.73;;;6.93;;
10154;SDS011;5118;48.570;7.916;2023-11-22T02:03:32;7.23;;;6.53;;
10154;SDS011;5118;48.570;7.916;2023-11-22T02:06:03;9.07;;;7.00;;
10154;SDS011;5118;48.570;7.916;2023-11-22T02:08:32;7.97;;;7.00;;
10154;SDS011;5118;48.570;7.916;2023-11-22T02:11:01;8.03;;;7.23;;
10154;SDS011;5118;48.570;7.916;2023-11-22T02:13:30;8.23;;;7.20;;
10154;SDS011;5118;48.570;7.916;2023-11-22T02:15:59;8.17;;;7.03;;
10154;SDS011;5118;48.570;7.916;2023-11-22T02:18:28;7.97;;;7.17;;
10154;SDS011;5118;48.570;7.916;2023-11-22T02:20:57;9.20;;;7.00;;
10154;SDS011;5118;48.570;7.916;2023-11-22T02:23:27;8.73;;;6.83;;
10154;SDS011;5118;48.570;7.916;2023-11-22T02:25:56;8.17;;;6.83;;
10154;SDS011;5118;48.570;7.916;2023-11-22T02:28:25;8.80;;;6.80;;
10154;SDS011;5118;48.570;7.916;2023-11-22T02:30:54;8.50;;;6.30;;
10154;SDS011;5118;48.570;7.916;2023-11-22T02:33:22;9.13;;;6.60;;
10154;SDS011;5118;48.570;7.916;2023-11-22T02:35:51;6.73;;;6.10;;
10154;SDS011;5118;48.570;7.916;2023-11-22T02:38:21;7.40;;;6.60;;
10154;SDS011;5118;48.570;7.916;2023-11-22T02:40:51;7.93;;;6.63;;
10154;SDS011;5118;48.570;7.916;2023-11-22T02:43:20;7.50;;;6.80;;
10154;SDS011;5118;48.570;7.916;2023-11-22T02:45:50;8.63;;;6.57;;
10154;SDS011;5118;48.570;7.916;2023-11-22T02:48:18;6.80;;;6.07;;
10154;SDS011;5118;48.570;7.916;2023-11-22T02:50:47;7.93;;;6.70;;
10154;SDS011;5118;48.570;7.916;2023-11-22T02:53:16;8.00;;;6.57;;
10154;SDS011;5118;48.570;7.916;2023-11-22T02:55:45;7.70;;;6.60;;
10154;SDS011;5118;48.570;7.916;2023-11-22T02:58:15;9.20;;;6.70;;
10154;SDS011;5118;48.570;7.916;2023-11-22T03:00:44;8.63;;;6.50;;
10154;SDS011;5118;48.570;7.916;2023-11-22T03:03:13;7.40;;;6.60;;
10154;SDS011;5118;48.570;7.916;2023-11-22T03:05:42;8.13;;;6.67;;
10154;SDS011;5118;48.570;7.916;2023-11-22T03:08:10;7.07;;;6.37;;
10154;SDS011;5118;48.570;7.916;2023-11-22T03:10:40;7.20;;;6.50;;
10154;SDS011;5118;48.570;7.916;2023-11-22T03:13:09;7.07;;;6.27;;
10154;SDS011;5118;48.570;7.916;2023-11-22T03:15:39;7.00;;;5.70;;
10154;SDS011;5118;48.570;7.916;2023-11-22T03:18:09;6.67;;;5.67;;
10154;SDS011;5118;48.570;7.916;2023-11-22T03:20:38;5.60;;;5.10;;
10154;SDS011;5118;48.570;7.916;2023-11-22T03:23:09;5.83;;;5.13;;
10154;SDS011;5118;48.570;7.916;2023-11-22T03:25:38;6.00;;;5.40;;
10154;SDS011;5118;48.570;7.916;2023-11-22T03:28:07;6.27;;;5.20;;
10154;SDS011;5118;48.570;7.916;2023-11-22T03:30:35;5.30;;;4.80;;
10154;SDS011;5118;48.570;7.916;2023-11-22T03:33:05;5.40;;;4.90;;
10154;SDS011;5118;48.570;7.916;2023-11-22T03:35:34;5.10;;;4.60;;
10154;SDS011;5118;48.570;7.916;2023-11-22T03:38:03;4.87;;;4.43;;
10154;SDS011;5118;48.570;7.916;2023-11-22T03:40:32;4.97;;;4.47;;
10154;SDS011;5118;48.570;7.916;2023-11-22T03:43:01;5.37;;;4.20;;
10154;SDS011;5118;48.570;7.916;2023-11-22T03:45:30;6.03;;;4.40;;
10154;SDS011;5118;48.570;7.916;2023-11-22T03:48:00;5.07;;;4.57;;
10154;SDS011;5118;48.570;7.916;2023-11-22T03:50:30;5.10;;;4.60;;
10154;SDS011;5118;48.570;7.916;2023-11-22T03:52:58;5.00;;;4.50;;
10154;SDS011;5118;48.570;7.916;2023-11-22T03:55:27;6.40;;;4.50;;
10154;SDS011;5118;48.570;7.916;2023-11-22T03:57:56;4.60;;;4.10;;
10154;SDS011;5118;48.570;7.916;2023-11-22T04:00:24;4.90;;;4.33;;
10154;SDS011;5118;48.570;7.916;2023-11-22T04:02:53;4.87;;;4.37;;
10154;SDS011;5118;48.570;7.916;2023-11-22T04:05:23;5.30;;;4.47;;
10154;SDS011;5118;48.570;7.916;2023-11-22T04:07:53;5.73;;;4.63;;
10154;SDS011;5118;48.570;7.916;2023-11-22T04:10:23;4.90;;;4.40;;
10154;SDS011;5118;48.570;7.916;2023-11-22T04:12:52;4.50;;;4.10;;
10154;SDS011;5118;48.570;7.916;2023-11-22T04:15:20;4.50;;;4.10;;
10154;SDS011;5118;48.570;7.916;2023-11-22T04:17:49;4.53;;;4.13;;
10154;SDS011;5118;48.570;7.916;2023-11-22T04:20:21;6.17;;;4.30;;
10154;SDS011;5118;48.570;7.916;2023-11-22T04:22:50;4.30;;;3.90;;
10154;SDS011;5118;48.570;7.916;2023-11-22T04:25:20;4.53;;;4.13;;
10154;SDS011;5118;48.570;7.916;2023-11-22T04:27:49;5.20;;;4.30;;
10154;SDS011;5118;48.570;7.916;2023-11-22T04:30:18;5.70;;;4.37;;
10154;SDS011;5118;48.570;7.916;2023-11-22T04:32:47;4.00;;;3.60;;
10154;SDS011;5118;48.570;7.916;2023-11-22T04:35:16;4.30;;;3.90;;
10154;SDS011;5118;48.570;7.916;2023-11-22T04:37:44;4.93;;;4.43;;
10154;SDS011;5118;48.570;7.916;2023-11-22T04:40:13;5.33;;;4.70;;
10154;SDS011;5118;48.570;7.916;2023-11-22T04:42:44;5.40;;;4.60;;
10154;SDS011;5118;48.570;7.916;2023-11-22T04:45:14;7.40;;;5.03;;
10154;SDS011;5118;48.570;7.916;2023-11-22T04:47:43;7.10;;;5.40;;
10154;SDS011;5118;48.570;7.916;2023-11-22T04:50:11;6.00;;;5.17;;
10154;SDS011;5118;48.570;7.916;2023-11-22T04:52:40;6.30;;;5.10;;
10154;SDS011;5118;48.570;7.916;2023-11-22T04:55:09;5.70;;;5.13;;
10154;SDS011;5118;48.570;7.916;2023-11-22T04:57:37;5.50;;;5.00;;
10154;SDS011;5118;48.570;7.916;2023-11-22T05:00:09;5.63;;;5.03;;
10154;SDS011;5118;48.570;7.916;2023-11-22T05:02:38;5.93;;;5.13;;
10154;SDS011;5118;48.570;7.916;2023-11-22T05:05:08;5.70;;;5.10;;
10154;SDS011;5118;48.570;7.916;2023-11-22T05:07:38;6.00;;;5.20;;
10154;SDS011;5118;48.570;7.916;2023-11-22T05:10:07;6.03;;;5.13;;
10154;SDS011;5118;48.570;7.916;2023-11-22T05:12:36;5.53;;;4.97;;
10154;SDS011;5118;48.570;7.916;2023-11-22T05:15:06;5.90;;;5.00;;
10154;SDS011;5118;48.570;7.916;2023-11-22T05:17:36;8.37;;;5.70;;
10154;SDS011;5118;48.570;7.916;2023-11-22T05:20:06;6.40;;;5.60;;
10154;SDS011;5118;48.570;7.916;2023-11-22T05:22:36;5.87;;;4.63;;
10154;SDS011;5118;48.570;7.916;2023-11-22T05:25:05;7.23;;;5.43;;
10154;SDS011;5118;48.570;7.916;2023-11-22T05:27:34;5.70;;;5.10;;
10154;SDS011;5118;48.570;7.916;2023-11-22T05:30:03;5.20;;;4.70;;
10154;SDS011;5118;48.570;7.916;2023-11-22T05:32:33;4.80;;;4.40;;
10154;SDS011;5118;48.570;7.916;2023-11-22T05:35:03;6.03;;;4.70;;
10154;SDS011;5118;48.570;7.916;2023-11-22T05:37:36;5.43;;;4.30;;
10154;SDS011;5118;48.570;7.916;2023-11-22T05:40:05;4.60;;;4.20;;
10154;SDS011;5118;48.570;7.916;2023-11-22T05:42:36;5.27;;;4.07;;
10154;SDS011;5118;48.570;7.916;2023-11-22T05:45:05;6.20;;;4.43;;
10154;SDS011;5118;48.570;7.916;2023-11-22T05:47:35;4.70;;;4.20;;
10154;SDS011;5118;48.570;7.916;2023-11-22T05:50:07;5.80;;;4.17;;
10154;SDS011;5118;48.570;7.916;2023-11-22T05:52:36;4.77;;;4.27;;
10154;SDS011;5118;48.570;7.916;2023-11-22T05:55:06;5.03;;;4.50;;
10154;SDS011;5118;48.570;7.916;2023-11-22T05:57:35;4.93;;;4.40;;
10154;SDS011;5118;48.570;7.916;2023-11-22T06:00:05;5.87;;;4.73;;
10154;SDS011;5118;48.570;7.916;2023-11-22T06:02:34;6.33;;;4.60;;
10154;SDS011;5118;48.570;7.916;2023-11-22T06:05:03;7.93;;;4.93;;
10154;SDS011;5118;48.570;7.916;2023-11-22T06:07:34;5.73;;;5.10;;
10154;SDS011;5118;48.570;7.916;2023-11-22T06:10:03;5.63;;;5.00;;
10154;SDS011;5118;48.570;7.916;2023-11-22T06:12:33;5.77;;;5.07;;
10154;SDS011;5118;48.570;7.916;2023-11-22T06:15:01;6.07;;;5.07;;
10154;SDS011;5118;48.570;7.916;2023-11-22T06:17:31;6.50;;;5.10;;
10154;SDS011;5118;48.570;7.916;2023-11-22T06:20:00;5.97;;;4.30;;
10154;SDS011;5118;48.570;7.916;2023-11-22T06:22:31;5.83;;;4.60;;
10154;SDS011;5118;48.570;7.916;2023-11-22T06:25:00;6.20;;;4.90;;
10154;SDS011;5118;48.570;7.916;2023-11-22T06:27:29;5.33;;;4.80;;
10154;SDS011;5118;48.570;7.916;2023-11-22T06:29:59;6.60;;;5.40;;
10154;SDS011;5118;48.570;7.916;2023-11-22T06:32:27;5.73;;;5.13;;
10154;SDS011;5118;48.570;7.916;2023-11-22T06:34:56;5.67;;;5.07;;
10154;SDS011;5118;48.570;7.916;2023-11-22T06:37:25;6.70;;;5.27;;
10154;SDS011;5118;48.570;7.916;2023-11-22T06:39:55;6.47;;;5.30;;
10154;SDS011;5118;48.570;7.916;2023-11-22T06:42:25;7.33;;;5.87;;
10154;SDS011;5118;48.570;7.916;2023-11-22T06:44:55;6.70;;;5.60;;
10154;SDS011;5118;48.570;7.916;2023-11-22T06:47:28;6.97;;;5.80;;
10154;SDS011;5118;48.570;7.916;2023-11-22T06:49:56;6.33;;;5.60;;
10154;SDS011;5118;48.570;7.916;2023-11-22T06:52:25;10.67;;;5.60;;
10154;SDS011;5118;48.570;7.916;2023-11-22T06:54:56;6.90;;;6.03;;
10154;SDS011;5118;48.570;7.916;2023-11-22T06:57:26;7.97;;;6.00;;
10154;SDS011;5118;48.570;7.916;2023-11-22T06:59:56;6.17;;;5.53;;
10154;SDS011;5118;48.570;7.916;2023-11-22T07:02:25;8.00;;;6.97;;
10154;SDS011;5118;48.570;7.916;2023-11-22T07:04:53;9.80;;;7.90;;
10154;SDS011;5118;48.570;7.916;2023-11-22T07:07:22;8.47;;;7.17;;
10154;SDS011;5118;48.570;7.916;2023-11-22T07:09:51;6.60;;;5.90;;
10154;SDS011;5118;48.570;7.916;2023-11-22T07:12:24;10.83;;;7.10;;
10154;SDS011;5118;48.570;7.916;2023-11-22T07:14:53;8.37;;;6.37;;
10154;SDS011;5118;48.570;7.916;2023-11-22T07:17:22;7.77;;;6.97;;
10154;SDS011;5118;48.570;7.916;2023-11-22T07:19:53;7.70;;;6.70;;
10154;SDS011;5118;48.570;7.916;2023-11-22T07:22:22;10.23;;;6.67;;
10154;SDS011;5118;48.570;7.916;2023-11-22T07:24:51;7.20;;;6.20;;
10154;SDS011;5118;48.570;7.916;2023-11-22T07:27:21;8.77;;;7.43;;
10154;SDS011;5118;48.570;7.916;2023-11-22T07:29:54;8.83;;;6.50;;
10154;SDS011;5118;48.570;7.916;2023-11-22T07:32:22;8.70;;;6.43;;
10154;SDS011;5118;48.570;7.916;2023-11-22T07:34:51;8.10;;;6.50;;
10154;SDS011;5118;48.570;7.916;2023-11-22T07:37:22;7.83;;;6.73;;
10154;SDS011;5118;48.570;7.916;2023-11-22T07:39:52;7.77;;;6.80;;
10154;SDS011;5118;48.570;7.916;2023-11-22T07:42:20;9.20;;;6.83;;
10154;SDS011;5118;48.570;7.916;2023-11-22T07:44:49;9.87;;;6.63;;
10154;SDS011;5118;48.570;7.916;2023-11-22T07:47:24;8.63;;;6.67;;
10154;SDS011;5118;48.570;7.916;2023-11-22T07:49:53;8.73;;;7.30;;
10154;SDS011;5118;48.570;7.916;2023-11-22T07:52:22;9.53;;;7.63;;
10154;SDS011;5118;48.570;7.916;2023-11-22T07:54:56;10.63;;;7.00;;
10154;SDS011;5118;48.570;7.916;2023-11-22T07:57:26;8.43;;;6.13;;
10154;SDS011;5118;48.570;7.916;2023-11-22T07:59:55;7.23;;;6.00;;
10154;SDS011;5118;48.570;7.916;2023-11-22T08:02:25;9.90;;;7.40;;
10154;SDS011;5118;48.570;7.916;2023-11-22T08:04:55;9.20;;;6.83;;
10154;SDS011;5118;48.570;7.916;2023-11-22T08:07:23;9.43;;;6.90;;
10154;SDS011;5118;48.570;7.916;2023-11-22T08:09:53;8.63;;;7.17;;
10154;SDS011;5118;48.570;7.916;2023-11-22T08:12:22;8.17;;;6.60;;
10154;SDS011;5118;48.570;7.916;2023-11-22T08:14:51;7.97;;;6.37;;
10154;SDS011;5118;48.570;7.916;2023-11-22T08:17:22;8.97;;;5.63;;
10154;SDS011;5118;48.570;7.916;2023-11-22T08:19:52;7.87;;;6.20;;
10154;SDS011;5118;48.570;7.916;2023-11-22T08:22:22;7.50;;;5.60;;
10154;SDS011;5118;48.570;7.916;2023-11-22T08:24:53;6.63;;;5.47;;
10154;SDS011;5118;48.570;7.916;2023-11-22T08:27:22;7.50;;;5.33;;
10154;SDS011;5118;48.570;7.916;2023-11-22T08:29:51;7.00;;;5.73;;
10154;SDS011;5118;48.570;7.916;2023-11-22T08:32:20;8.33;;;5.43;;
10154;SDS011;5118;48.570;7.916;2023-11-22T08:34:53;7.67;;;4.90;;
10154;SDS011;5118;48.570;7.916;2023-11-22T08:37:23;6.77;;;4.80;;
10154;SDS011;5118;48.570;7.916;2023-11-22T08:39:52;7.00;;;4.77;;
10154;SDS011;5118;48.570;7.916;2023-11-22T08:42:21;5.03;;;4.53;;
10154;SDS011;5118;48.570;7.916;2023-11-22T08:44:50;4.97;;;4.40;;
10154;SDS011;5118;48.570;7.916;2023-11-22T08:47:18;5.90;;;4.83;;
10154;SDS011;5118;48.570;7.916;2023-11-22T08:49:47;5.00;;;4.50;;
10154;SDS011;5118;48.570;7.916;2023-11-22T08:52:17;7.23;;;4.33;;
10154;SDS011;5118;48.570;7.916;2023-11-22T08:54:46;5.60;;;4.40;;
10154;SDS011;5118;48.570;7.916;2023-11-22T08:57:15;5.73;;;4.07;;
10154;SDS011;5118;48.570;7.916;2023-11-22T08:59:44;5.20;;;4.47;;
10154;SDS011;5118;48.570;7.916;2023-11-22T09:02:14;4.50;;;3.97;;
10154;SDS011;5118;48.570;7.916;2023-11-22T09:04:44;5.50;;;4.67;;
10154;SDS011;5118;48.570;7.916;2023-11-22T09:07:13;5.53;;;4.10;;
10154;SDS011;5118;48.570;7.916;2023-11-22T09:09:44;4.70;;;3.57;;
10154;SDS011;5118;48.570;7.916;2023-11-22T09:12:13;5.90;;;4.07;;
10154;SDS011;5118;48.570;7.916;2023-11-22T09:14:42;4.47;;;3.97;;
10154;SDS011;5118;48.570;7.916;2023-11-22T09:17:11;3.57;;;3.17;;
10154;SDS011;5118;48.570;7.916;2023-11-22T09:19:41;4.50;;;4.00;;
10154;SDS011;5118;48.570;7.916;2023-11-22T09:22:10;5.53;;;4.10;;
10154;SDS011;5118;48.570;7.916;2023-11-22T09:24:40;5.47;;;4.77;;
10154;SDS011;5118;48.570;7.916;2023-11-22T09:27:10;4.53;;;4.13;;
10154;SDS011;5118;48.570;7.916;2023-11-22T09:29:42;4.57;;;4.07;;
10154;SDS011;5118;48.570;7.916;2023-11-22T09:32:11;3.80;;;3.00;;
10154;SDS011;5118;48.570;7.916;2023-11-22T09:34:40;5.47;;;3.70;;
10154;SDS011;5118;48.570;7.916;2023-11-22T09:37:11;4.57;;;3.30;;
10154;SDS011;5118;48.570;7.916;2023-11-22T09:39:41;4.67;;;3.40;;
10154;SDS011;5118;48.570;7.916;2023-11-22T09:42:12;3.87;;;3.47;;
10154;SDS011;5118;48.570;7.916;2023-11-22T09:44:40;5.77;;;3.97;;
10154;SDS011;5118;48.570;7.916;2023-11-22T09:47:10;5.23;;;4.27;;
10154;SDS011;5118;48.570;7.916;2023-11-22T09:49:39;4.13;;;3.73;;
10154;SDS011;5118;48.570;7.916;2023-11-22T09:52:11;5.13;;;4.50;;
10154;SDS011;5118;48.570;7.916;2023-11-22T09:54:46;5.60;;;3.40;;
10154;SDS011;5118;48.570;7.916;2023-11-22T09:57:17;5.33;;;4.00;;
10154;SDS011;5118;48.570;7.916;2023-11-22T09:59:50;5.00;;;4.27;;
10154;SDS011;5118;48.570;7.916;2023-11-22T10:02:22;4.03;;;3.60;;
10154;SDS011;5118;48.570;7.916;2023-11-22T10:04:54;3.90;;;3.50;;
10154;SDS011;5118;48.570;7.916;2023-11-22T10:07:23;3.50;;;3.20;;
10154;SDS011;5118;48.570;7.916;2023-11-22T10:09:53;4.70;;;3.80;;
10154;SDS011;5118;48.570;7.916;2023-11-22T10:12:25;4.83;;;3.63;;
10154;SDS011;5118;48.570;7.916;2023-11-22T10:15:09;3.93;;;3.53;;
10154;SDS011;5118;48.570;7.916;2023-11-22T10:17:39;4.33;;;3.47;;
10154;SDS011;5118;48.570;7.916;2023-11-22T10:20:08;5.13;;;4.17;;
10154;SDS011;5118;48.570;7.916;2023-11-22T10:22:43;4.33;;;3.80;;
10154;SDS011;5118;48.570;7.916;2023-11-22T10:25:15;5.70;;;3.77;;
10154;SDS011;5118;48.570;7.916;2023-11-22T10:27:47;4.37;;;3.97;;
10154;SDS011;5118;48.570;7.916;2023-11-22T10:30:18;4.60;;;4.10;;
10154;SDS011;5118;48.570;7.916;2023-11-22T10:32:47;5.17;;;3.70;;
10154;SDS011;5118;48.570;7.916;2023-11-22T10:35:16;5.20;;;4.07;;
10154;SDS011;5118;48.570;7.916;2023-11-22T10:37:49;5.67;;;4.20;;
10154;SDS011;5118;48.570;7.916;2023-11-22T10:40:18;4.57;;;3.90;;
10154;SDS011;5118;48.570;7.916;2023-11-22T10:42:48;4.00;;;3.53;;
10154;SDS011;5118;48.570;7.916;2023-11-22T10:45:20;4.63;;;3.50;;
10154;SDS011;5118;48.570;7.916;2023-11-22T10:47:50;6.97;;;4.17;;
10154;SDS011;5118;48.570;7.916;2023-11-22T10:50:22;4.83;;;4.03;;
10154;SDS011;5118;48.570;7.916;2023-11-22T10:52:51;3.50;;;3.20;;
10154;SDS011;5118;48.570;7.916;2023-11-22T10:55:22;3.70;;;3.40;;
10154;SDS011;5118;48.570;7.916;2023-11-22T10:57:56;4.13;;;3.33;;
10154;SDS011;5118;48.570;7.916;2023-11-22T11:00:31;3.50;;;3.20;;
10154;SDS011;5118;48.570;7.916;2023-11-22T11:03:01;4.80;;;3.40;;
10154;SDS011;5118;48.570;7.916;2023-11-22T11:05:38;3.83;;;3.37;;
10154;SDS011;5118;48.570;7.916;2023-11-22T11:08:11;3.73;;;3.33;;
10154;SDS011;5118;48.570;7.916;2023-11-22T11:10:40;4.73;;;3.47;;
10154;SDS011;5118;48.570;7.916;2023-11-22T11:13:11;3.90;;;3.50;;
10154;SDS011;5118;48.570;7.916;2023-11-22T11:15:42;4.00;;;3.50;;
10154;SDS011;5118;48.570;7.916;2023-11-22T11:18:12;5.40;;;3.80;;
10154;SDS011;5118;48.570;7.916;2023-11-22T11:20:46;4.03;;;3.40;;
10154;SDS011;5118;48.570;7.916;2023-11-22T11:23:17;4.03;;;3.63;;
10154;SDS011;5118;48.570;7.916;2023-11-22T11:25:47;3.83;;;3.50;;
10154;SDS011;5118;48.570;7.916;2023-11-22T11:28:18;4.50;;;3.83;;
10154;SDS011;5118;48.570;7.916;2023-11-22T11:30:48;4.30;;;3.70;;
10154;SDS011;5118;48.570;7.916;2023-11-22T11:33:17;5.37;;;3.90;;
10154;SDS011;5118;48.570;7.916;2023-11-22T11:35:48;4.10;;;3.70;;
10154;SDS011;5118;48.570;7.916;2023-11-22T11:38:19;4.67;;;3.90;;
10154;SDS011;5118;48.570;7.916;2023-11-22T11:40:49;4.77;;;4.27;;
10154;SDS011;5118;48.570;7.916;2023-11-22T11:43:23;3.73;;;3.43;;
10154;SDS011;5118;48.570;7.916;2023-11-22T11:46:07;4.90;;;4.10;;
10154;SDS011;5118;48.570;7.916;2023-11-22T11:48:37;8.70;;;5.77;;
10154;SDS011;5118;48.570;7.916;2023-11-22T11:51:13;9.47;;;5.47;;
10154;SDS011;5118;48.570;7.916;2023-11-22T11:53:42;6.67;;;5.00;;
10154;SDS011;5118;48.570;7.916;2023-11-22T11:56:11;5.97;;;4.17;;
10154;SDS011;5118;48.570;7.916;2023-11-22T11:58:42;6.80;;;4.07;;
10154;SDS011;5118;48.570;7.916;2023-11-22T12:01:12;4.90;;;3.63;;
10154;SDS011;5118;48.570;7.916;2023-11-22T12:03:40;4.13;;;3.73;;
10154;SDS011;5118;48.570;7.916;2023-11-22T12:06:10;4.67;;;3.67;;
10154;SDS011;5118;48.570;7.916;2023-11-22T12:08:42;4.30;;;3.90;;
10154;SDS011;5118;48.570;7.916;2023-11-22T12:11:12;4.30;;;3.50;;
10154;SDS011;5118;48.570;7.916;2023-11-22T12:13:44;4.67;;;3.93;;
10154;SDS011;5118;48.570;7.916;2023-11-22T12:16:16;3.80;;;3.40;;
10154;SDS011;5118;48.570;7.916;2023-11-22T12:18:46;4.23;;;3.83;;
10154;SDS011;5118;48.570;7.916;2023-11-22T12:21:16;4.30;;;3.90;;
10154;SDS011;5118;48.570;7.916;2023-11-22T12:23:46;4.53;;;3.80;;
10154;SDS011;5118;48.570;7.916;2023-11-22T12:26:17;4.70;;;3.87;;
10154;SDS011;5118;48.570;7.916;2023-11-22T12:28:49;4.27;;;3.87;;
10154;SDS011;5118;48.570;7.916;2023-11-22T12:31:31;4.10;;;3.63;;
10154;SDS011;5118;48.570;7.916;2023-11-22T12:34:03;5.17;;;3.70;;
10154;SDS011;5118;48.570;7.916;2023-11-22T12:36:34;4.07;;;3.60;;
10154;SDS011;5118;48.570;7.916;2023-11-22T12:39:06;3.73;;;3.43;;
10154;SDS011;5118;48.570;7.916;2023-11-22T12:41:44;4.50;;;4.10;;
10154;SDS011;5118;48.570;7.916;2023-11-22T12:44:23;4.27;;;3.87;;
10154;SDS011;5118;48.570;7.916;2023-11-22T12:46:52;4.70;;;3.90;;
10154;SDS011;5118;48.570;7.916;2023-11-22T12:49:25;4.83;;;4.33;;
10154;SDS011;5118;48.570;7.916;2023-11-22T12:51:54;5.80;;;4.80;;
10154;SDS011;5118;48.570;7.916;2023-11-22T12:54:24;4.37;;;3.80;;
10154;SDS011;5118;48.570;7.916;2023-11-22T12:56:53;4.60;;;3.87;;
10154;SDS011;5118;48.570;7.916;2023-11-22T12:59:27;4.83;;;4.33;;
10154;SDS011;5118;48.570;7.916;2023-11-22T13:01:58;4.90;;;4.40;;
10154;SDS011;5118;48.570;7.916;2023-11-22T13:04:28;8.43;;;4.60;;
10154;SDS011;5118;48.570;7.916;2023-11-22T13:06:58;5.30;;;4.00;;
10154;SDS011;5118;48.570;7.916;2023-11-22T13:09:27;5.20;;;4.60;;
10154;SDS011;5118;48.570;7.916;2023-11-22T13:11:59;4.93;;;4.43;;
10154;SDS011;5118;48.570;7.916;2023-11-22T13:14:29;5.07;;;4.17;;
10154;SDS011;5118;48.570;7.916;2023-11-22T13:17:04;6.20;;;4.80;;
10154;SDS011;5118;48.570;7.916;2023-11-22T13:19:35;5.30;;;4.70;;
10154;SDS011;5118;48.570;7.916;2023-11-22T13:22:07;6.47;;;4.97;;
10154;SDS011;5118;48.570;7.916;2023-11-22T13:24:36;4.40;;;4.00;;
10154;SDS011;5118;48.570;7.916;2023-11-22T13:27:09;6.47;;;5.07;;
10154;SDS011;5118;48.570;7.916;2023-11-22T13:29:39;6.07;;;4.80;;
10154;SDS011;5118;48.570;7.916;2023-11-22T13:32:07;5.13;;;4.63;;
10154;SDS011;5118;48.570;7.916;2023-11-22T13:34:36;4.77;;;4.30;;
10154;SDS011;5118;48.570;7.916;2023-11-22T13:37:05;5.10;;;4.60;;
10154;SDS011;5118;48.570;7.916;2023-11-22T13:39:34;5.00;;;4.50;;
10154;SDS011;5118;48.570;7.916;2023-11-22T13:42:03;7.97;;;4.80;;
10154;SDS011;5118;48.570;7.916;2023-11-22T13:44:32;5.80;;;5.03;;
10154;SDS011;5118;48.570;7.916;2023-11-22T13:47:02;5.67;;;5.00;;
10154;SDS011;5118;48.570;7.916;2023-11-22T13:49:34;5.03;;;4.53;;
10154;SDS011;5118;48.570;7.916;2023-11-22T13:52:03;5.10;;;4.60;;
10154;SDS011;5118;48.570;7.916;2023-11-22T13:54:32;4.60;;;4.20;;
10154;SDS011;5118;48.570;7.916;2023-11-22T13:57:04;5.90;;;4.50;;
10154;SDS011;5118;48.570;7.916;2023-11-22T13:59:34;6.17;;;5.03;;
10154;SDS011;5118;48.570;7.916;2023-11-22T14:02:04;5.07;;;4.50;;
10154;SDS011;5118;48.570;7.916;2023-11-22T14:04:32;7.60;;;6.13;;
10154;SDS011;5118;48.570;7.916;2023-11-22T14:07:01;7.23;;;5.83;;
10154;SDS011;5118;48.570;7.916;2023-11-22T14:09:30;5.93;;;5.30;;
10154;SDS011;5118;48.570;7.916;2023-11-22T14:11:59;4.60;;;4.20;;
10154;SDS011;5118;48.570;7.916;2023-11-22T14:14:27;6.17;;;4.30;;
10154;SDS011;5118;48.570;7.916;2023-11-22T14:16:56;5.57;;;4.53;;
10154;SDS011;5118;48.570;7.916;2023-11-22T14:19:29;6.53;;;5.00;;
10154;SDS011;5118;48.570;7.916;2023-11-22T14:21:58;5.57;;;4.93;;
10154;SDS011;5118;48.570;7.916;2023-11-22T14:24:27;7.10;;;5.47;;
10154;SDS011;5118;48.570;7.916;2023-11-22T14:26:57;6.13;;;5.10;;
10154;SDS011;5118;48.570;7.916;2023-11-22T14:29:27;6.97;;;5.70;;
10154;SDS011;5118;48.570;7.916;2023-11-22T14:31:56;6.37;;;5.40;;
10154;SDS011;5118;48.570;7.916;2023-11-22T14:34:24;4.67;;;4.17;;
10154;SDS011;5118;48.570;7.916;2023-11-22T14:36:54;9.63;;;7.20;;
10154;SDS011;5118;48.570;7.916;2023-11-22T14:39:25;14.77;;;10.17;;
10154;SDS011;5118;48.570;7.916;2023-11-22T14:41:56;8.77;;;7.07;;
10154;SDS011;5118;48.570;7.916;2023-11-22T14:44:24;16.53;;;12.40;;
10154;SDS011;5118;48.570;7.916;2023-11-22T14:46:53;12.80;;;9.93;;
10154;SDS011;5118;48.570;7.916;2023-11-22T14:49:25;9.27;;;7.30;;
10154;SDS011;5118;48.570;7.916;2023-11-22T14:51:57;11.80;;;9.17;;
10154;SDS011;5118;48.570;7.916;2023-11-22T14:54:26;8.33;;;6.13;;
10154;SDS011;5118;48.570;7.916;2023-11-22T14:56:55;7.63;;;6.40;;
10154;SDS011;5118;48.570;7.916;2023-11-22T14:59:28;7.03;;;6.27;;
10154;SDS011;5118;48.570;7.916;2023-11-22T15:01:57;8.50;;;6.70;;
10154;SDS011;5118;48.570;7.916;2023-11-22T15:04:27;7.67;;;5.07;;
10154;SDS011;5118;48.570;7.916;2023-11-22T15:06:57;6.63;;;4.97;;
10154;SDS011;5118;48.570;7.916;2023-11-22T15:09:26;7.53;;;5.23;;
10154;SDS011;5118;48.570;7.916;2023-11-22T15:11:55;7.57;;;6.03;;
10154;SDS011;5118;48.570;7.916;2023-11-22T15:14:23;7.93;;;7.10;;
10154;SDS011;5118;48.570;7.916;2023-11-22T15:16:52;7.73;;;6.93;;